sensor_id;sensor_type;location;lat;lon;timestamp;temperature;humidity
13673;DHT22;6909;52.202;9.876;2023-04-01T00:01:25;10.00;1.00
13673;DHT22;6909;52.202;9.876;2023-04-01T00:03:52;10.00;1.00
13673;DHT22;6909;52.202;9.876;2023-04-01T00:06:21;10.00;1.00
13673;DHT22;6909;52.202;9.876;2023-04-01T00:08:48;10.00;1.00
13673;DHT22;6909;52.202;9.876;2023-04-01T00:11:16;10.00;1.00
13673;DHT22;6909;52.202;9.876;2023-04-01T00:13:45;10.00;1.00
13673;DHT22;6909;52.202;9.876;2023-04-01T00:16:12;10.00;1.00
13673;DHT22;6909;52.202;9.876;2023-04-01T00:18:38;10.00;1.00
13673;DHT22;6909;52.202;9.876;2023-04-01T00:21:06;10.00;99.90
13673;DHT22;6909;52.202;9.876;2023-04-01T00:23:33;10.00;99.90
13673;DHT22;6909;52.202;9.876;2023-04-01T00:26:01;10.10;99.90
13673;DHT22;6909;52.202;9.876;2023-04-01T00:28:27;10.10;3.10
13673;DHT22;6909;52.202;9.876;2023-04-01T00:30:55;10.10;1.00
13673;DHT22;6909;52.202;9.876;2023-04-01T00:33:22;10.10;1.00
13673;DHT22;6909;52.202;9.876;2023-04-01T00:35:49;10.10;1.00
13673;DHT22;6909;52.202;9.876;2023-04-01T00:38:15;10.10;1.00
13673;DHT22;6909;52.202;9.876;2023-04-01T00:40:45;10.10;1.00
13673;DHT22;6909;52.202;9.876;2023-04-01T00:43:15;10.10;1.00
13673;DHT22;6909;52.202;9.876;2023-04-01T00:45:43;10.10;1.00
13673;DHT22;6909;52.202;9.876;2023-04-01T00:48:16;10.10;1.00
13673;DHT22;6909;52.202;9.876;2023-04-01T00:50:47;10.10;1.00
13673;DHT22;6909;52.202;9.876;2023-04-01T00:53:16;10.10;99.90
13673;DHT22;6909;52.202;9.876;2023-04-01T00:55:49;10.10;99.90
13673;DHT22;6909;52.202;9.876;2023-04-01T00:58:18;10.10;99.90
13673;DHT22;6909;52.202;9.876;2023-04-01T01:00:49;10.10;99.90
13673;DHT22;6909;52.202;9.876;2023-04-01T01:03:18;10.10;99.90
13673;DHT22;6909;52.202;9.876;2023-04-01T01:06:00;10.10;99.90
13673;DHT22;6909;52.202;9.876;2023-04-01T01:08:45;10.10;61.20
13673;DHT22;6909;52.202;9.876;2023-04-01T01:11:18;10.10;66.90
13673;DHT22;6909;52.202;9.876;2023-04-01T01:13:52;10.10;99.90
13673;DHT22;6909;52.202;9.876;2023-04-01T01:16:25;10.10;99.90
13673;DHT22;6909;52.202;9.876;2023-04-01T01:18:59;10.00;99.90
13673;DHT22;6909;52.202;9.876;2023-04-01T01:21:43;10.00;99.90
13673;DHT22;6909;52.202;9.876;2023-04-01T01:24:22;10.00;99.90
13673;DHT22;6909;52.202;9.876;2023-04-01T01:26:59;9.90;1.00
13673;DHT22;6909;52.202;9.876;2023-04-01T01:29:59;9.90;1.00
13673;DHT22;6909;52.202;9.876;2023-04-01T01:35:34;9.70;1.00
13673;DHT22;6909;52.202;9.876;2023-04-01T01:38:04;9.60;99.90
13673;DHT22;6909;52.202;9.876;2023-04-01T01:40:36;9.60;99.90
13673;DHT22;6909;52.202;9.876;2023-04-01T01:43:06;9.60;1.00
13673;DHT22;6909;52.202;9.876;2023-04-01T01:45:36;9.50;1.00
13673;DHT22;6909;52.202;9.876;2023-04-01T01:48:06;9.50;1.00
13673;DHT22;6909;52.202;9.876;2023-04-01T01:50:36;9.50;1.00
13673;DHT22;6909;52.202;9.876;2023-04-01T01:53:04;9.50;1.00
13673;DHT22;6909;52.202;9.876;2023-04-01T01:55:34;9.50;1.00
13673;DHT22;6909;52.202;9.876;2023-04-01T01:58:04;9.50;1.00
13673;DHT22;6909;52.202;9.876;2023-04-01T02:00:31;9.50;1.00
13673;DHT22;6909;52.202;9.876;2023-04-01T02:02:58;9.40;1.00
13673;DHT22;6909;52.202;9.876;2023-04-01T02:05:27;9.40;99.90
13673;DHT22;6909;52.202;9.876;2023-04-01T02:08:01;9.40;99.90
13673;DHT22;6909;52.202;9.876;2023-04-01T02:10:31;9.40;23.70
13673;DHT22;6909;52.202;9.876;2023-04-01T02:13:05;9.50;1.00
13673;DHT22;6909;52.202;9.876;2023-04-01T02:15:35;9.50;1.00
13673;DHT22;6909;52.202;9.876;2023-04-01T02:18:04;9.40;1.00
13673;DHT22;6909;52.202;9.876;2023-04-01T02:20:32;9.50;1.00
13673;DHT22;6909;52.202;9.876;2023-04-01T02:23:00;9.50;1.00
13673;DHT22;6909;52.202;9.876;2023-04-01T02:25:29;9.50;1.00
13673;DHT22;6909;52.202;9.876;2023-04-01T02:27:57;9.50;1.00
13673;DHT22;6909;52.202;9.876;2023-04-01T02:30:27;9.50;1.00
13673;DHT22;6909;52.202;9.876;2023-04-01T02:32:55;9.50;99.90
13673;DHT22;6909;52.202;9.876;2023-04-01T02:35:23;9.40;1.00
13673;DHT22;6909;52.202;9.876;2023-04-01T02:37:50;9.40;99.90
13673;DHT22;6909;52.202;9.876;2023-04-01T02:40:20;9.40;99.90
13673;DHT22;6909;52.202;9.876;2023-04-01T02:42:47;9.50;1.00
13673;DHT22;6909;52.202;9.876;2023-04-01T02:45:14;9.40;1.00
13673;DHT22;6909;52.202;9.876;2023-04-01T02:47:41;9.40;1.00
13673;DHT22;6909;52.202;9.876;2023-04-01T02:50:08;9.50;99.90
13673;DHT22;6909;52.202;9.876;2023-04-01T02:52:35;9.50;99.90
13673;DHT22;6909;52.202;9.876;2023-04-01T02:55:03;9.50;1.00
13673;DHT22;6909;52.202;9.876;2023-04-01T02:57:31;9.60;99.90
13673;DHT22;6909;52.202;9.876;2023-04-01T02:59:58;9.60;99.90
13673;DHT22;6909;52.202;9.876;2023-04-01T03:02:25;9.60;99.90
13673;DHT22;6909;52.202;9.876;2023-04-01T03:04:52;9.60;1.00
13673;DHT22;6909;52.202;9.876;2023-04-01T03:07:19;9.60;1.00
13673;DHT22;6909;52.202;9.876;2023-04-01T03:09:45;9.60;1.00
13673;DHT22;6909;52.202;9.876;2023-04-01T03:12:12;9.70;99.90
13673;DHT22;6909;52.202;9.876;2023-04-01T03:14:40;9.60;1.00
13673;DHT22;6909;52.202;9.876;2023-04-01T03:17:06;9.70;99.90
13673;DHT22;6909;52.202;9.876;2023-04-01T03:19:33;9.60;1.00
13673;DHT22;6909;52.202;9.876;2023-04-01T03:22:00;9.70;1.00
13673;DHT22;6909;52.202;9.876;2023-04-01T03:24:26;9.70;1.00
13673;DHT22;6909;52.202;9.876;2023-04-01T03:26:53;9.70;99.90
13673;DHT22;6909;52.202;9.876;2023-04-01T03:29:20;9.70;1.00
13673;DHT22;6909;52.202;9.876;2023-04-01T03:31:48;9.70;1.00
13673;DHT22;6909;52.202;9.876;2023-04-01T03:34:14;9.70;1.00
13673;DHT22;6909;52.202;9.876;2023-04-01T03:36:41;9.70;1.00
13673;DHT22;6909;52.202;9.876;2023-04-01T03:39:08;9.70;21.10
13673;DHT22;6909;52.202;9.876;2023-04-01T03:41:36;9.70;1.00
13673;DHT22;6909;52.202;9.876;2023-04-01T03:44:03;9.70;1.00
13673;DHT22;6909;52.202;9.876;2023-04-01T03:46:29;9.70;1.00
13673;DHT22;6909;52.202;9.876;2023-04-01T03:48:57;9.70;1.00
13673;DHT22;6909;52.202;9.876;2023-04-01T03:51:24;9.70;1.00
13673;DHT22;6909;52.202;9.876;2023-04-01T03:53:51;9.70;1.00
13673;DHT22;6909;52.202;9.876;2023-04-01T03:56:17;9.70;1.00
13673;DHT22;6909;52.202;9.876;2023-04-01T03:58:44;9.60;1.00
13673;DHT22;6909;52.202;9.876;2023-04-01T04:01:15;9.60;1.00
13673;DHT22;6909;52.202;9.876;2023-04-01T04:03:42;9.60;1.00
13673;DHT22;6909;52.202;9.876;2023-04-01T04:06:13;9.60;1.00
13673;DHT22;6909;52.202;9.876;2023-04-01T04:08:40;9.60;99.90
13673;DHT22;6909;52.202;9.876;2023-04-01T04:11:07;9.60;99.90
13673;DHT22;6909;52.202;9.876;2023-04-01T04:13:34;9.70;99.90
13673;DHT22;6909;52.202;9.876;2023-04-01T04:16:01;9.70;99.90
13673;DHT22;6909;52.202;9.876;2023-04-01T04:18:28;9.60;1.00
13673;DHT22;6909;52.202;9.876;2023-04-01T04:20:55;9.60;1.00
13673;DHT22;6909;52.202;9.876;2023-04-01T04:23:23;9.50;99.90
13673;DHT22;6909;52.202;9.876;2023-04-01T04:25:54;9.60;1.00
13673;DHT22;6909;52.202;9.876;2023-04-01T04:28:21;9.50;1.00
13673;DHT22;6909;52.202;9.876;2023-04-01T04:30:48;9.60;1.00
13673;DHT22;6909;52.202;9.876;2023-04-01T04:33:15;9.60;1.00
13673;DHT22;6909;52.202;9.876;2023-04-01T04:35:42;9.60;99.90
13673;DHT22;6909;52.202;9.876;2023-04-01T04:38:09;9.60;1.00
13673;DHT22;6909;52.202;9.876;2023-04-01T04:40:41;9.60;1.00
13673;DHT22;6909;52.202;9.876;2023-04-01T04:43:10;9.60;1.00
13673;DHT22;6909;52.202;9.876;2023-04-01T04:45:37;9.50;99.90
13673;DHT22;6909;52.202;9.876;2023-04-01T04:48:03;9.50;95.90
13673;DHT22;6909;52.202;9.876;2023-04-01T04:50:31;9.50;99.90
13673;DHT22;6909;52.202;9.876;2023-04-01T04:52:57;9.50;1.00
13673;DHT22;6909;52.202;9.876;2023-04-01T04:55:24;9.50;1.00
13673;DHT22;6909;52.202;9.876;2023-04-01T04:57:52;9.50;1.00
13673;DHT22;6909;52.202;9.876;2023-04-01T05:00:18;9.40;99.90
13673;DHT22;6909;52.202;9.876;2023-04-01T05:02:46;9.40;99.90
13673;DHT22;6909;52.202;9.876;2023-04-01T05:05:12;9.40;99.90
13673;DHT22;6909;52.202;9.876;2023-04-01T05:07:39;9.40;99.90
13673;DHT22;6909;52.202;9.876;2023-04-01T05:10:06;9.40;99.90
13673;DHT22;6909;52.202;9.876;2023-04-01T05:12:33;9.40;1.00
13673;DHT22;6909;52.202;9.876;2023-04-01T05:15:05;9.40;99.90
13673;DHT22;6909;52.202;9.876;2023-04-01T05:17:32;9.40;99.90
13673;DHT22;6909;52.202;9.876;2023-04-01T05:19:58;9.40;1.00
13673;DHT22;6909;52.202;9.876;2023-04-01T05:22:25;9.40;99.90
13673;DHT22;6909;52.202;9.876;2023-04-01T05:24:52;9.50;99.90
13673;DHT22;6909;52.202;9.876;2023-04-01T05:27:19;9.40;1.00
13673;DHT22;6909;52.202;9.876;2023-04-01T05:29:45;9.40;1.00
13673;DHT22;6909;52.202;9.876;2023-04-01T05:32:14;9.40;1.00
13673;DHT22;6909;52.202;9.876;2023-04-01T05:34:40;9.40;1.00
13673;DHT22;6909;52.202;9.876;2023-04-01T05:37:07;9.40;1.00
13673;DHT22;6909;52.202;9.876;2023-04-01T05:39:36;9.40;1.00
13673;DHT22;6909;52.202;9.876;2023-04-01T05:42:03;9.40;1.00
13673;DHT22;6909;52.202;9.876;2023-04-01T05:44:31;9.50;99.90
13673;DHT22;6909;52.202;9.876;2023-04-01T05:46:58;9.60;96.00
13673;DHT22;6909;52.202;9.876;2023-04-01T05:49:26;9.60;99.90
13673;DHT22;6909;52.202;9.876;2023-04-01T05:51:53;9.60;99.90
13673;DHT22;6909;52.202;9.876;2023-04-01T05:54:20;9.60;99.90
13673;DHT22;6909;52.202;9.876;2023-04-01T05:56:46;9.70;1.00
13673;DHT22;6909;52.202;9.876;2023-04-01T05:59:13;9.80;1.00
13673;DHT22;6909;52.202;9.876;2023-04-01T06:01:40;9.90;1.00
13673;DHT22;6909;52.202;9.876;2023-04-01T06:04:09;9.90;99.90
13673;DHT22;6909;52.202;9.876;2023-04-01T06:06:37;10.00;99.90
13673;DHT22;6909;52.202;9.876;2023-04-01T06:09:12;10.00;99.90
13673;DHT22;6909;52.202;9.876;2023-04-01T06:11:47;10.10;1.00
13673;DHT22;6909;52.202;9.876;2023-04-01T06:14:27;10.10;1.00
13673;DHT22;6909;52.202;9.876;2023-04-01T06:17:09;10.20;1.00
13673;DHT22;6909;52.202;9.876;2023-04-01T06:19:44;10.10;1.00
13673;DHT22;6909;52.202;9.876;2023-04-01T06:22:42;10.20;99.90
13673;DHT22;6909;52.202;9.876;2023-04-01T06:28:16;10.20;1.00
13673;DHT22;6909;52.202;9.876;2023-04-01T06:30:53;10.30;1.00
13673;DHT22;6909;52.202;9.876;2023-04-01T06:33:39;10.30;1.00
13673;DHT22;6909;52.202;9.876;2023-04-01T06:39:26;10.40;99.90
13673;DHT22;6909;52.202;9.876;2023-04-01T06:42:17;10.40;1.00
13673;DHT22;6909;52.202;9.876;2023-04-01T06:44:54;10.40;99.90
13673;DHT22;6909;52.202;9.876;2023-04-01T06:47:42;10.30;99.90
13673;DHT22;6909;52.202;9.876;2023-04-01T06:50:21;10.30;18.50
13673;DHT22;6909;52.202;9.876;2023-04-01T06:52:58;10.30;99.90
13673;DHT22;6909;52.202;9.876;2023-04-01T06:55:34;10.30;1.00
13673;DHT22;6909;52.202;9.876;2023-04-01T06:58:05;10.30;99.90
13673;DHT22;6909;52.202;9.876;2023-04-01T07:00:34;10.30;99.90
13673;DHT22;6909;52.202;9.876;2023-04-01T07:03:08;10.30;99.90
13673;DHT22;6909;52.202;9.876;2023-04-01T07:05:36;10.30;99.90
13673;DHT22;6909;52.202;9.876;2023-04-01T07:08:05;10.30;1.00
13673;DHT22;6909;52.202;9.876;2023-04-01T07:10:43;10.40;1.00
13673;DHT22;6909;52.202;9.876;2023-04-01T07:13:15;10.50;1.00
13673;DHT22;6909;52.202;9.876;2023-04-01T07:15:54;10.50;1.00
13673;DHT22;6909;52.202;9.876;2023-04-01T07:18:25;10.60;99.90
13673;DHT22;6909;52.202;9.876;2023-04-01T07:20:55;10.60;99.90
13673;DHT22;6909;52.202;9.876;2023-04-01T07:23:25;10.70;1.00
13673;DHT22;6909;52.202;9.876;2023-04-01T07:25:56;10.80;99.90
13673;DHT22;6909;52.202;9.876;2023-04-01T07:28:30;10.90;99.90
13673;DHT22;6909;52.202;9.876;2023-04-01T07:31:05;10.90;1.00
13673;DHT22;6909;52.202;9.876;2023-04-01T07:33:39;11.10;99.90
13673;DHT22;6909;52.202;9.876;2023-04-01T07:36:12;11.00;1.00
13673;DHT22;6909;52.202;9.876;2023-04-01T07:38:52;10.90;1.00
13673;DHT22;6909;52.202;9.876;2023-04-01T07:41:29;10.90;1.00
13673;DHT22;6909;52.202;9.876;2023-04-01T07:44:08;11.00;1.00
13673;DHT22;6909;52.202;9.876;2023-04-01T07:46:53;10.90;1.00
13673;DHT22;6909;52.202;9.876;2023-04-01T07:49:28;10.90;99.90
13673;DHT22;6909;52.202;9.876;2023-04-01T07:52:03;11.00;1.00
13673;DHT22;6909;52.202;9.876;2023-04-01T07:54:44;11.00;1.00
13673;DHT22;6909;52.202;9.876;2023-04-01T07:57:18;11.00;1.00
13673;DHT22;6909;52.202;9.876;2023-04-01T07:59:54;11.00;1.00
13673;DHT22;6909;52.202;9.876;2023-04-01T08:02:31;11.10;1.00
13673;DHT22;6909;52.202;9.876;2023-04-01T08:05:07;11.20;99.90
13673;DHT22;6909;52.202;9.876;2023-04-01T08:07:43;11.20;3.90
13673;DHT22;6909;52.202;9.876;2023-04-01T08:10:16;11.40;1.00
13673;DHT22;6909;52.202;9.876;2023-04-01T08:12:55;11.40;99.90
13673;DHT22;6909;52.202;9.876;2023-04-01T08:15:27;11.40;69.20
13673;DHT22;6909;52.202;9.876;2023-04-01T08:18:05;11.40;1.00
13673;DHT22;6909;52.202;9.876;2023-04-01T08:20:37;11.50;1.00
13673;DHT22;6909;52.202;9.876;2023-04-01T08:23:11;11.50;1.00
13673;DHT22;6909;52.202;9.876;2023-04-01T08:25:47;11.60;1.00
13673;DHT22;6909;52.202;9.876;2023-04-01T08:28:21;11.60;1.00
13673;DHT22;6909;52.202;9.876;2023-04-01T08:30:52;11.60;1.00
13673;DHT22;6909;52.202;9.876;2023-04-01T08:33:24;11.70;1.00
13673;DHT22;6909;52.202;9.876;2023-04-01T08:35:54;11.60;99.90
13673;DHT22;6909;52.202;9.876;2023-04-01T08:38:27;11.50;1.00
13673;DHT22;6909;52.202;9.876;2023-04-01T08:41:19;11.50;99.90
13673;DHT22;6909;52.202;9.876;2023-04-01T08:44:19;11.70;99.90
13673;DHT22;6909;52.202;9.876;2023-04-01T08:47:16;11.60;99.90
13673;DHT22;6909;52.202;9.876;2023-04-01T08:50:12;11.70;1.00
13673;DHT22;6909;52.202;9.876;2023-04-01T08:52:50;12.00;99.90
13673;DHT22;6909;52.202;9.876;2023-04-01T08:55:31;12.10;1.00
13673;DHT22;6909;52.202;9.876;2023-04-01T08:58:27;12.00;1.00
13673;DHT22;6909;52.202;9.876;2023-04-01T09:01:11;12.10;1.00
13673;DHT22;6909;52.202;9.876;2023-04-01T09:03:58;12.20;1.00
13673;DHT22;6909;52.202;9.876;2023-04-01T09:06:40;12.20;99.90
13673;DHT22;6909;52.202;9.876;2023-04-01T09:09:29;12.20;99.90
13673;DHT22;6909;52.202;9.876;2023-04-01T09:12:19;12.40;99.90
13673;DHT22;6909;52.202;9.876;2023-04-01T09:15:12;12.60;99.90
13673;DHT22;6909;52.202;9.876;2023-04-01T09:20:52;12.60;1.00
13673;DHT22;6909;52.202;9.876;2023-04-01T09:24:00;12.50;1.00
13673;DHT22;6909;52.202;9.876;2023-04-01T09:26:49;12.60;1.00
13673;DHT22;6909;52.202;9.876;2023-04-01T09:29:27;12.20;99.90
13673;DHT22;6909;52.202;9.876;2023-04-01T09:32:19;12.30;99.90
13673;DHT22;6909;52.202;9.876;2023-04-01T09:34:54;12.30;99.90
13673;DHT22;6909;52.202;9.876;2023-04-01T09:37:30;12.30;99.90
13673;DHT22;6909;52.202;9.876;2023-04-01T09:40:16;12.40;99.90
13673;DHT22;6909;52.202;9.876;2023-04-01T09:42:47;12.50;99.90
13673;DHT22;6909;52.202;9.876;2023-04-01T09:45:44;12.50;99.90
13673;DHT22;6909;52.202;9.876;2023-04-01T09:48:22;12.70;93.30
13673;DHT22;6909;52.202;9.876;2023-04-01T09:51:00;12.60;99.90
13673;DHT22;6909;52.202;9.876;2023-04-01T09:53:37;12.60;1.00
13673;DHT22;6909;52.202;9.876;2023-04-01T09:56:39;12.50;1.00
13673;DHT22;6909;52.202;9.876;2023-04-01T09:59:42;12.60;1.00
13673;DHT22;6909;52.202;9.876;2023-04-01T10:05:40;12.40;1.00
13673;DHT22;6909;52.202;9.876;2023-04-01T10:08:36;12.40;1.00
13673;DHT22;6909;52.202;9.876;2023-04-01T10:11:56;12.30;1.00
13673;DHT22;6909;52.202;9.876;2023-04-01T10:17:35;12.30;1.00
13673;DHT22;6909;52.202;9.876;2023-04-01T10:20:26;12.40;50.00
13673;DHT22;6909;52.202;9.876;2023-04-01T10:23:47;12.50;99.90
13673;DHT22;6909;52.202;9.876;2023-04-01T10:26:58;12.50;1.00
13673;DHT22;6909;52.202;9.876;2023-04-01T10:29:42;12.70;1.00
13673;DHT22;6909;52.202;9.876;2023-04-01T10:32:34;12.70;1.00
13673;DHT22;6909;52.202;9.876;2023-04-01T10:35:38;12.40;1.00
13673;DHT22;6909;52.202;9.876;2023-04-01T10:38:41;12.40;1.00
13673;DHT22;6909;52.202;9.876;2023-04-01T10:41:46;12.40;1.00
13673;DHT22;6909;52.202;9.876;2023-04-01T10:47:48;12.30;1.00
13673;DHT22;6909;52.202;9.876;2023-04-01T10:50:49;12.50;99.90
13673;DHT22;6909;52.202;9.876;2023-04-01T10:53:43;12.40;99.90
13673;DHT22;6909;52.202;9.876;2023-04-01T10:56:34;12.40;1.00
13673;DHT22;6909;52.202;9.876;2023-04-01T10:59:33;12.50;96.40
13673;DHT22;6909;52.202;9.876;2023-04-01T11:05:49;12.90;99.90
13673;DHT22;6909;52.202;9.876;2023-04-01T11:08:41;12.80;1.00
13673;DHT22;6909;52.202;9.876;2023-04-01T11:11:39;12.90;1.00
13673;DHT22;6909;52.202;9.876;2023-04-01T11:17:54;13.00;1.00
13673;DHT22;6909;52.202;9.876;2023-04-01T11:20:51;13.00;1.00
13673;DHT22;6909;52.202;9.876;2023-04-01T11:23:43;13.20;1.00
13673;DHT22;6909;52.202;9.876;2023-04-01T11:26:17;13.30;1.00
13673;DHT22;6909;52.202;9.876;2023-04-01T11:29:24;13.40;1.00
13673;DHT22;6909;52.202;9.876;2023-04-01T11:32:00;13.30;1.00
13673;DHT22;6909;52.202;9.876;2023-04-01T11:34:42;13.10;1.00
13673;DHT22;6909;52.202;9.876;2023-04-01T11:37:18;13.20;1.00
13673;DHT22;6909;52.202;9.876;2023-04-01T11:40:03;13.20;1.00
13673;DHT22;6909;52.202;9.876;2023-04-01T11:42:38;13.00;1.00
13673;DHT22;6909;52.202;9.876;2023-04-01T11:45:24;12.90;1.00
13673;DHT22;6909;52.202;9.876;2023-04-01T11:48:17;13.10;1.00
13673;DHT22;6909;52.202;9.876;2023-04-01T11:50:58;13.00;1.00
13673;DHT22;6909;52.202;9.876;2023-04-01T11:53:37;13.20;1.00
13673;DHT22;6909;52.202;9.876;2023-04-01T11:56:14;13.20;1.00
13673;DHT22;6909;52.202;9.876;2023-04-01T11:59:01;13.00;1.00
13673;DHT22;6909;52.202;9.876;2023-04-01T12:01:41;13.10;1.00
13673;DHT22;6909;52.202;9.876;2023-04-01T12:07:17;13.10;1.00
13673;DHT22;6909;52.202;9.876;2023-04-01T12:09:52;13.10;1.00
13673;DHT22;6909;52.202;9.876;2023-04-01T12:12:29;13.40;99.90
13673;DHT22;6909;52.202;9.876;2023-04-01T12:15:08;13.20;99.90
13673;DHT22;6909;52.202;9.876;2023-04-01T12:17:46;13.30;1.00
13673;DHT22;6909;52.202;9.876;2023-04-01T12:20:34;13.40;1.00
13673;DHT22;6909;52.202;9.876;2023-04-01T12:23:14;13.20;99.90
13673;DHT22;6909;52.202;9.876;2023-04-01T12:26:05;13.10;99.90
13673;DHT22;6909;52.202;9.876;2023-04-01T12:28:47;13.20;99.90
13673;DHT22;6909;52.202;9.876;2023-04-01T12:31:29;13.30;99.90
13673;DHT22;6909;52.202;9.876;2023-04-01T12:34:18;13.60;99.90
13673;DHT22;6909;52.202;9.876;2023-04-01T12:37:00;13.60;1.00
13673;DHT22;6909;52.202;9.876;2023-04-01T12:39:56;13.40;1.00
13673;DHT22;6909;52.202;9.876;2023-04-01T12:42:52;13.50;22.10
13673;DHT22;6909;52.202;9.876;2023-04-01T12:45:31;13.30;1.00
13673;DHT22;6909;52.202;9.876;2023-04-01T12:48:06;13.40;1.00
13673;DHT22;6909;52.202;9.876;2023-04-01T12:56:55;13.40;1.00
13673;DHT22;6909;52.202;9.876;2023-04-01T12:59:42;13.30;1.00
13673;DHT22;6909;52.202;9.876;2023-04-01T13:02:13;13.50;1.00
13673;DHT22;6909;52.202;9.876;2023-04-01T13:05:15;13.50;1.00
13673;DHT22;6909;52.202;9.876;2023-04-01T13:07:59;13.10;99.90
13673;DHT22;6909;52.202;9.876;2023-04-01T13:10:38;13.20;1.00
13673;DHT22;6909;52.202;9.876;2023-04-01T13:13:47;13.20;99.90
13673;DHT22;6909;52.202;9.876;2023-04-01T13:16:19;13.50;99.90
13673;DHT22;6909;52.202;9.876;2023-04-01T13:18:55;13.40;99.90
13673;DHT22;6909;52.202;9.876;2023-04-01T13:21:34;13.20;99.90
13673;DHT22;6909;52.202;9.876;2023-04-01T13:24:14;13.40;99.90
13673;DHT22;6909;52.202;9.876;2023-04-01T13:26:50;13.40;99.90
13673;DHT22;6909;52.202;9.876;2023-04-01T13:29:21;13.40;99.90
13673;DHT22;6909;52.202;9.876;2023-04-01T13:32:05;13.40;99.90
13673;DHT22;6909;52.202;9.876;2023-04-01T13:34:42;13.20;97.10
13673;DHT22;6909;52.202;9.876;2023-04-01T13:37:22;13.40;99.90
13673;DHT22;6909;52.202;9.876;2023-04-01T13:40:13;13.30;99.90
13673;DHT22;6909;52.202;9.876;2023-04-01T13:42:49;13.10;99.90
13673;DHT22;6909;52.202;9.876;2023-04-01T13:45:19;13.00;99.90
13673;DHT22;6909;52.202;9.876;2023-04-01T13:48:04;12.80;1.00
13673;DHT22;6909;52.202;9.876;2023-04-01T13:50:54;12.60;1.00
13673;DHT22;6909;52.202;9.876;2023-04-01T13:53:39;12.20;1.00
13673;DHT22;6909;52.202;9.876;2023-04-01T13:56:26;12.00;1.00
13673;DHT22;6909;52.202;9.876;2023-04-01T14:02:24;11.60;99.90
13673;DHT22;6909;52.202;9.876;2023-04-01T14:05:08;11.40;1.00
13673;DHT22;6909;52.202;9.876;2023-04-01T14:07:49;11.40;1.00
13673;DHT22;6909;52.202;9.876;2023-04-01T14:10:27;11.30;1.00
13673;DHT22;6909;52.202;9.876;2023-04-01T14:13:03;11.20;1.00
13673;DHT22;6909;52.202;9.876;2023-04-01T14:15:50;11.20;29.90
13673;DHT22;6909;52.202;9.876;2023-04-01T14:21:32;11.20;1.00
13673;DHT22;6909;52.202;9.876;2023-04-01T14:27:11;10.90;99.90
13673;DHT22;6909;52.202;9.876;2023-04-01T14:29:55;10.80;97.00
13673;DHT22;6909;52.202;9.876;2023-04-01T14:32:32;10.90;99.90
13673;DHT22;6909;52.202;9.876;2023-04-01T14:35:16;10.80;1.00
13673;DHT22;6909;52.202;9.876;2023-04-01T14:38:02;10.70;1.00
13673;DHT22;6909;52.202;9.876;2023-04-01T14:40:45;10.60;99.90
13673;DHT22;6909;52.202;9.876;2023-04-01T14:43:38;10.50;1.00
13673;DHT22;6909;52.202;9.876;2023-04-01T14:46:27;10.50;1.00
13673;DHT22;6909;52.202;9.876;2023-04-01T14:49:01;10.50;99.90
13673;DHT22;6909;52.202;9.876;2023-04-01T14:51:30;10.50;99.90
13673;DHT22;6909;52.202;9.876;2023-04-01T14:54:08;10.40;99.90
13673;DHT22;6909;52.202;9.876;2023-04-01T14:56:38;10.20;99.90
13673;DHT22;6909;52.202;9.876;2023-04-01T14:59:09;10.00;99.90
13673;DHT22;6909;52.202;9.876;2023-04-01T15:01:45;9.90;99.90
13673;DHT22;6909;52.202;9.876;2023-04-01T15:04:44;9.80;99.90
13673;DHT22;6909;52.202;9.876;2023-04-01T15:07:40;9.70;99.90
13673;DHT22;6909;52.202;9.876;2023-04-01T15:13:12;9.30;99.90
13673;DHT22;6909;52.202;9.876;2023-04-01T15:15:48;9.10;99.90
13673;DHT22;6909;52.202;9.876;2023-04-01T15:18:29;9.00;99.90
13673;DHT22;6909;52.202;9.876;2023-04-01T15:21:11;9.00;99.90
13673;DHT22;6909;52.202;9.876;2023-04-01T15:23:56;9.00;99.90
13673;DHT22;6909;52.202;9.876;2023-04-01T15:26:54;9.00;99.90
13673;DHT22;6909;52.202;9.876;2023-04-01T15:29:34;8.90;99.90
13673;DHT22;6909;52.202;9.876;2023-04-01T15:32:14;8.90;99.90
13673;DHT22;6909;52.202;9.876;2023-04-01T15:34:50;8.80;99.90
13673;DHT22;6909;52.202;9.876;2023-04-01T15:37:23;8.70;99.90
13673;DHT22;6909;52.202;9.876;2023-04-01T15:39:57;8.70;99.90
13673;DHT22;6909;52.202;9.876;2023-04-01T15:42:41;8.70;99.90
13673;DHT22;6909;52.202;9.876;2023-04-01T15:45:17;8.60;99.90
13673;DHT22;6909;52.202;9.876;2023-04-01T15:47:46;8.60;99.90
13673;DHT22;6909;52.202;9.876;2023-04-01T15:50:27;8.50;99.90
13673;DHT22;6909;52.202;9.876;2023-04-01T15:55:46;8.50;99.90
13673;DHT22;6909;52.202;9.876;2023-04-01T15:58:30;8.50;99.90
13673;DHT22;6909;52.202;9.876;2023-04-01T16:01:07;8.40;99.90
13673;DHT22;6909;52.202;9.876;2023-04-01T16:03:50;8.40;99.90
13673;DHT22;6909;52.202;9.876;2023-04-01T16:06:34;8.40;99.90
13673;DHT22;6909;52.202;9.876;2023-04-01T16:09:17;8.40;99.90
13673;DHT22;6909;52.202;9.876;2023-04-01T16:11:53;8.40;99.90
13673;DHT22;6909;52.202;9.876;2023-04-01T16:14:32;8.40;99.90
13673;DHT22;6909;52.202;9.876;2023-04-01T16:17:08;8.40;99.90
13673;DHT22;6909;52.202;9.876;2023-04-01T16:19:48;8.30;99.90
13673;DHT22;6909;52.202;9.876;2023-04-01T16:22:22;8.30;99.90
13673;DHT22;6909;52.202;9.876;2023-04-01T16:24:54;8.30;99.90
13673;DHT22;6909;52.202;9.876;2023-04-01T16:27:27;8.30;99.90
13673;DHT22;6909;52.202;9.876;2023-04-01T16:29:59;8.30;99.90
13673;DHT22;6909;52.202;9.876;2023-04-01T16:32:36;8.30;99.90
13673;DHT22;6909;52.202;9.876;2023-04-01T16:35:23;8.20;99.90
13673;DHT22;6909;52.202;9.876;2023-04-01T16:37:59;8.20;99.90
13673;DHT22;6909;52.202;9.876;2023-04-01T16:40:40;8.10;99.90
13673;DHT22;6909;52.202;9.876;2023-04-01T16:43:15;8.10;99.90
13673;DHT22;6909;52.202;9.876;2023-04-01T16:45:45;8.10;99.90
13673;DHT22;6909;52.202;9.876;2023-04-01T16:48:18;8.00;99.90
13673;DHT22;6909;52.202;9.876;2023-04-01T16:50:55;8.00;99.90
13673;DHT22;6909;52.202;9.876;2023-04-01T16:53:37;8.00;99.90
13673;DHT22;6909;52.202;9.876;2023-04-01T16:56:12;7.90;99.90
13673;DHT22;6909;52.202;9.876;2023-04-01T16:58:42;7.90;99.90
13673;DHT22;6909;52.202;9.876;2023-04-01T17:01:13;7.70;99.90
13673;DHT22;6909;52.202;9.876;2023-04-01T17:03:43;7.60;99.90
13673;DHT22;6909;52.202;9.876;2023-04-01T17:06:20;7.60;99.90
13673;DHT22;6909;52.202;9.876;2023-04-01T17:09:02;7.60;99.90
13673;DHT22;6909;52.202;9.876;2023-04-01T17:11:39;7.60;99.90
13673;DHT22;6909;52.202;9.876;2023-04-01T17:14:17;7.60;99.90
13673;DHT22;6909;52.202;9.876;2023-04-01T17:16:56;7.60;99.90
13673;DHT22;6909;52.202;9.876;2023-04-01T17:19:39;7.50;99.90
13673;DHT22;6909;52.202;9.876;2023-04-01T17:22:22;7.50;99.90
13673;DHT22;6909;52.202;9.876;2023-04-01T17:25:02;7.50;99.90
13673;DHT22;6909;52.202;9.876;2023-04-01T17:27:40;7.50;99.90
13673;DHT22;6909;52.202;9.876;2023-04-01T17:30:17;7.30;99.90
13673;DHT22;6909;52.202;9.876;2023-04-01T17:32:54;7.20;99.90
13673;DHT22;6909;52.202;9.876;2023-04-01T17:35:28;7.10;99.90
13673;DHT22;6909;52.202;9.876;2023-04-01T17:38:05;7.10;99.90
13673;DHT22;6909;52.202;9.876;2023-04-01T17:40:53;7.00;99.90
13673;DHT22;6909;52.202;9.876;2023-04-01T17:43:31;6.90;99.90
13673;DHT22;6909;52.202;9.876;2023-04-01T17:46:07;6.90;99.90
13673;DHT22;6909;52.202;9.876;2023-04-01T17:48:43;6.90;99.90
13673;DHT22;6909;52.202;9.876;2023-04-01T17:51:22;6.90;99.90
13673;DHT22;6909;52.202;9.876;2023-04-01T17:53:59;6.80;99.90